Terminal Aerodrome Forecast
Issued by NWS

Home | Current Version | Previous Version | Text Only | Print | Product List | Glossary On
Versions: 1 2 3 4 5 6 7 8 9 10 11 12 13 14 15
000
FTUS43 KDTX 251120
TAFMBS
TAF
KMBS 251120Z 2512/2612 25010KT P6SM BKN030 OVC070
      TEMPO 2512/2515 4SM -TSRA BR OVC015CB
     FM251600 26013G20KT P6SM VCSH BKN040
     FM252200 28010KT P6SM SCT250
     FM260800 27005KT 3SM BR SCT200=

USA.gov is the U.S. government's official web portal to all federal, state and local government web resources and services.